Time;durP1;ratioP1;P1;durP2;ratioP2;P2;SDS_P1;SDS_P2;PMS_P1;PMS_P2;Temp;Humidity;BMP_temperature;BMP_pressure;BME280_temperature;BME280_humidity;BME280_pressure;Samples;Min_cycle;Max_cycle;Signal;HPM_P1;HPM_P2
2024/01/28 00:01:01;;;;;;;12.77;6.00;;;;;;;4.20;58.08;103271.47;4966638;28;124404;-69
2024/01/28 00:03:28;;;;;;;13.45;6.15;;;;;;;4.17;58.33;103271.41;4964967;28;124017;-68
2024/01/28 00:05:56;;;;;;;13.57;5.80;;;;;;;4.16;58.26;103264.38;4970910;28;107204;-69
2024/01/28 00:08:25;;;;;;;14.95;5.60;;;;;;;4.15;58.33;103262.63;4965443;28;107621;-69
2024/01/28 00:10:54;;;;;;;14.20;5.93;;;;;;;4.13;58.22;103261.72;4970898;28;124613;-69
2024/01/28 00:13:24;;;;;;;11.88;5.88;;;;;;;4.10;58.43;103250.28;4971554;28;123832;-69
2024/01/28 00:15:55;;;;;;;13.90;6.13;;;;;;;4.09;58.22;103259.03;4973718;28;107788;-69
2024/01/28 00:18:23;;;;;;;12.32;6.10;;;;;;;4.07;58.27;103250.25;4969123;28;107517;-69
2024/01/28 00:20:50;;;;;;;16.88;6.15;;;;;;;4.05;58.06;103246.72;4972071;28;124172;-68
2024/01/28 00:23:18;;;;;;;16.30;6.47;;;;;;;4.02;58.13;103246.63;4972845;28;123827;-69
2024/01/28 00:25:45;;;;;;;11.48;6.07;;;;;;;3.99;58.12;103240.44;4972769;28;107826;-69
2024/01/28 00:28:12;;;;;;;13.38;4.22;;;;;;;3.96;58.29;103224.66;4972892;28;107615;-69
2024/01/28 00:30:39;;;;;;;9.68;3.63;;;;;;;3.95;58.07;103213.25;4961358;28;124145;-70
2024/01/28 00:33:07;;;;;;;13.82;4.18;;;;;;;3.94;58.09;103198.41;4965508;28;124275;-70
2024/01/28 00:35:34;;;;;;;9.98;4.13;;;;;;;3.96;58.34;103198.44;4971328;28;107887;-70
2024/01/28 00:38:02;;;;;;;10.27;4.00;;;;;;;3.96;58.38;103199.31;4971302;28;107217;-70
2024/01/28 00:40:30;;;;;;;11.77;4.70;;;;;;;3.97;58.53;103201.06;4971792;28;124703;-69
2024/01/28 00:42:57;;;;;;;15.30;4.32;;;;;;;3.99;58.43;103194.13;4973073;28;123303;-70
2024/01/28 00:45:25;;;;;;;15.30;3.65;;;;;;;4.01;58.45;103187.19;4960978;28;107484;-69
2024/01/28 00:47:52;;;;;;;9.98;3.85;;;;;;;4.04;58.55;103195.09;4973869;28;107648;-69
2024/01/28 00:50:22;;;;;;;10.35;3.63;;;;;;;4.07;58.68;103187.31;4973726;28;124391;-69
2024/01/28 00:52:49;;;;;;;11.70;3.92;;;;;;;4.10;58.44;103182.09;4971655;28;123251;-69
2024/01/28 00:55:16;;;;;;;11.15;4.05;;;;;;;4.14;58.58;103176.94;4959026;28;107830;-69
2024/01/28 00:57:43;;;;;;;10.18;4.03;;;;;;;4.18;58.58;103184.91;4966276;28;107384;-69
2024/01/28 01:00:12;;;;;;;13.27;4.18;;;;;;;4.21;58.56;103191.94;4971593;28;125067;-68
2024/01/28 01:02:39;;;;;;;8.00;3.65;;;;;;;4.25;58.51;103191.13;4954724;28;123076;-69
2024/01/28 01:05:07;;;;;;;7.03;3.58;;;;;;;4.27;58.51;103194.66;4969978;28;107613;-70
2024/01/28 01:07:34;;;;;;;12.63;3.53;;;;;;;4.30;58.44;103194.75;4962129;28;107405;-69
2024/01/28 01:10:01;;;;;;;8.85;3.85;;;;;;;4.32;58.61;103193.03;4971595;28;124677;-69
2024/01/28 01:12:29;;;;;;;12.82;3.45;;;;;;;4.36;58.44;103193.97;4968658;28;125439;-69
2024/01/28 01:14:56;;;;;;;11.57;3.80;;;;;;;4.36;58.41;103194.84;4954625;28;108196;-69
2024/01/28 01:17:23;;;;;;;7.57;3.45;;;;;;;4.38;58.63;103193.13;4972128;28;107468;-69
2024/01/28 01:19:51;;;;;;;8.82;4.18;;;;;;;4.39;58.44;103194.91;4970269;28;125033;-69
2024/01/28 01:22:18;;;;;;;6.38;3.42;;;;;;;4.39;58.70;103189.66;4969652;28;124264;-69
2024/01/28 01:24:46;;;;;;;9.88;3.70;;;;;;;4.39;58.37;103189.66;4966279;28;109561;-69
2024/01/28 01:27:13;;;;;;;8.07;3.47;;;;;;;4.37;58.44;103178.25;4960875;28;107949;-69
2024/01/28 01:29:40;;;;;;;9.65;3.58;;;;;;;4.36;58.48;103184.34;4956809;28;123585;-69
2024/01/28 01:32:10;;;;;;;11.07;4.07;;;;;;;4.32;58.31;103181.66;4969138;28;123859;-69
2024/01/28 01:34:37;;;;;;;10.25;3.65;;;;;;;4.29;58.08;103182.47;4962473;28;110264;-69
2024/01/28 01:37:05;;;;;;;9.48;4.00;;;;;;;4.27;58.33;103184.19;4971557;28;109932;-69
2024/01/28 01:39:32;;;;;;;11.05;3.33;;;;;;;4.24;58.39;103184.13;4958201;28;123771;-69
2024/01/28 01:42:00;;;;;;;8.50;3.88;;;;;;;4.22;58.14;103175.31;4966383;28;123792;-69
2024/01/28 01:44:28;;;;;;;11.98;3.90;;;;;;;4.19;58.31;103177.91;4962728;28;109213;-69
2024/01/28 01:46:55;;;;;;;8.93;3.75;;;;;;;4.16;58.35;103181.34;4959646;28;108681;-69
2024/01/28 01:49:23;;;;;;;5.88;3.60;;;;;;;4.15;58.11;103178.72;4970804;28;123377;-69
2024/01/28 01:51:50;;;;;;;11.13;3.92;;;;;;;4.13;58.24;103180.44;4958668;28;124234;-69
2024/01/28 01:54:19;;;;;;;10.00;3.90;;;;;;;4.10;58.48;103179.47;4972214;28;108974;-69
2024/01/28 01:56:47;;;;;;;9.55;3.88;;;;;;;4.08;58.27;103173.31;4968617;28;108475;-69
2024/01/28 01:59:15;;;;;;;9.50;3.50;;;;;;;4.09;58.32;103175.09;4957644;28;125203;-70
2024/01/28 02:01:42;;;;;;;8.60;3.47;;;;;;;4.07;58.44;103176.81;4966501;28;124436;-69
2024/01/28 02:04:12;;;;;;;10.15;3.90;;;;;;;4.05;58.46;103175.91;4968293;28;109235;-69
2024/01/28 02:06:39;;;;;;;10.90;3.80;;;;;;;4.03;58.41;103164.50;4975560;28;109295;-69
2024/01/28 02:09:07;;;;;;;11.48;3.67;;;;;;;4.02;58.40;103178.47;4974138;28;123347;-69
2024/01/28 02:11:34;;;;;;;6.68;3.42;;;;;;;4.01;58.25;103181.94;4963872;28;124190;-70
2024/01/28 02:14:02;;;;;;;9.57;4.35;;;;;;;4.00;58.22;103185.41;4973575;28;109439;-69
2024/01/28 02:16:29;;;;;;;11.00;3.33;;;;;;;4.00;58.45;103182.78;4974379;28;109300;-69
2024/01/28 02:18:56;;;;;;;9.55;3.63;;;;;;;3.99;58.44;103173.16;4972589;28;123805;-69
2024/01/28 02:21:24;;;;;;;7.43;3.67;;;;;;;3.97;58.24;103174.84;4974980;28;124054;-69
2024/01/28 02:23:51;;;;;;;13.73;3.35;;;;;;;3.97;58.20;103174.84;4974159;28;110057;-70
2024/01/28 02:26:19;;;;;;;12.02;4.07;;;;;;;3.97;58.21;103180.09;4972646;28;109821;-69
2024/01/28 02:28:46;;;;;;;11.00;3.85;;;;;;;3.96;58.00;103177.47;4966119;28;124271;-69
2024/01/28 02:31:13;;;;;;;11.38;3.97;;;;;;;3.93;58.00;103173.03;4972039;28;124335;-69
2024/01/28 02:33:41;;;;;;;14.10;3.92;;;;;;;3.92;58.11;103175.63;4972400;28;108617;-69
2024/01/28 02:36:08;;;;;;;11.40;3.65;;;;;;;3.90;58.15;103170.38;4970780;28;108784;-69
2024/01/28 02:38:35;;;;;;;9.38;3.55;;;;;;;3.88;58.58;103169.41;4974161;28;125331;-69
2024/01/28 02:41:03;;;;;;;10.73;4.20;;;;;;;3.87;58.18;103167.66;4973538;28;122994;-69
2024/01/28 02:43:30;;;;;;;8.80;3.78;;;;;;;3.85;58.37;103159.78;4966462;28;109526;-69
2024/01/28 02:45:57;;;;;;;9.75;3.47;;;;;;;3.84;58.17;103157.09;4974700;28;108781;-69
2024/01/28 02:48:25;;;;;;;10.02;3.92;;;;;;;3.81;58.23;103150.06;4970264;28;124738;-69
2024/01/28 02:50:52;;;;;;;9.05;3.60;;;;;;;3.78;58.24;103141.25;4974407;28;124051;-69
2024/01/28 02:53:20;;;;;;;10.07;3.58;;;;;;;3.74;58.14;103128.97;4973881;28;109830;-69
2024/01/28 02:55:49;;;;;;;10.68;4.45;;;;;;;3.70;58.05;103123.66;4969823;28;108879;-69
2024/01/28 02:58:16;;;;;;;10.48;4.18;;;;;;;3.67;58.30;103118.38;4972026;28;124267;-69
2024/01/28 03:00:43;;;;;;;11.32;4.00;;;;;;;3.63;58.43;103116.50;4965610;28;124643;-69
2024/01/28 03:03:11;;;;;;;7.95;3.30;;;;;;;3.62;58.39;103117.38;4973903;28;108721;-69
2024/01/28 03:05:38;;;;;;;9.02;3.70;;;;;;;3.61;58.45;103112.97;4975230;28;109834;-69
2024/01/28 03:08:06;;;;;;;8.93;3.60;;;;;;;3.62;58.38;103120.00;4968083;28;124341;-69
2024/01/28 03:10:33;;;;;;;11.32;3.92;;;;;;;3.62;58.54;103120.00;4964923;28;125459;-69
2024/01/28 03:13:00;;;;;;;7.95;3.80;;;;;;;3.62;58.35;103119.13;4945088;28;109496;-69
2024/01/28 03:15:27;;;;;;;7.10;3.60;;;;;;;3.61;58.31;103120.84;4967946;28;108970;-69
2024/01/28 03:17:55;;;;;;;9.18;3.28;;;;;;;3.60;58.36;103111.22;4966672;28;124124;-69
2024/01/28 03:20:24;;;;;;;9.00;3.95;;;;;;;3.61;58.49;103102.50;4969548;28;123390;-69
2024/01/28 03:22:51;;;;;;;8.90;3.35;;;;;;;3.62;58.58;103104.28;4973318;28;109312;-70
2024/01/28 03:25:19;;;;;;;12.02;3.78;;;;;;;3.61;58.22;103101.63;4973647;28;107970;-69
2024/01/28 03:27:46;;;;;;;10.73;4.32;;;;;;;3.61;58.53;103092.00;4972914;28;124083;-69
2024/01/28 03:30:15;;;;;;;7.32;3.80;;;;;;;3.59;58.46;103098.09;4967497;28;123858;-69
2024/01/28 03:32:42;;;;;;;10.65;3.47;;;;;;;3.58;58.61;103091.97;4974099;28;109162;-69
2024/01/28 03:35:12;;;;;;;8.05;3.70;;;;;;;3.56;58.60;103093.69;4972419;28;109008;-69
2024/01/28 03:37:39;;;;;;;10.73;3.75;;;;;;;3.57;58.35;103100.66;4971373;28;124301;-69
2024/01/28 03:40:07;;;;;;;8.05;3.78;;;;;;;3.57;58.41;103100.66;4972431;28;124416;-69
2024/01/28 03:42:34;;;;;;;7.97;3.65;;;;;;;3.58;58.68;103106.78;4971958;28;109484;-69
2024/01/28 03:45:03;;;;;;;12.95;3.58;;;;;;;3.58;58.38;103102.44;4968261;28;108825;-69
2024/01/28 03:47:32;;;;;;;13.98;3.88;;;;;;;3.59;58.66;103109.44;4961700;28;124108;-69
2024/01/28 03:49:59;;;;;;;8.02;3.35;;;;;;;3.60;58.51;103100.75;4971660;28;124552;-70
2024/01/28 03:52:26;;;;;;;11.63;3.63;;;;;;;3.61;58.33;103107.72;4972792;28;109037;-69
2024/01/28 03:54:55;;;;;;;9.52;3.67;;;;;;;3.62;58.41;103106.91;4973755;28;107988;-69
2024/01/28 03:57:22;;;;;;;8.57;3.53;;;;;;;3.62;58.67;103109.50;4963798;28;124122;-69
2024/01/28 03:59:49;;;;;;;13.98;4.30;;;;;;;3.61;58.36;103102.50;4969768;28;123987;-69
2024/01/28 04:02:17;;;;;;;11.35;3.70;;;;;;;3.60;58.43;103103.38;4971430;28;109899;-69
2024/01/28 04:04:45;;;;;;;9.18;3.40;;;;;;;3.59;58.33;103100.69;4963576;28;110370;-70
2024/01/28 04:07:12;;;;;;;15.25;3.90;;;;;;;3.58;58.43;103096.31;4972334;28;124006;-70
2024/01/28 04:09:40;;;;;;;13.18;3.92;;;;;;;3.56;58.35;103088.44;4972079;28;124724;-70
2024/01/28 04:12:07;;;;;;;8.00;3.20;;;;;;;3.55;58.30;103084.03;4962443;28;109529;-70
2024/01/28 04:14:34;;;;;;;7.85;3.55;;;;;;;3.53;58.41;103083.13;4971351;28;108611;-69
2024/01/28 04:17:01;;;;;;;14.38;3.72;;;;;;;3.52;58.37;103083.97;4964328;28;123488;-70
2024/01/28 04:19:29;;;;;;;7.55;3.70;;;;;;;3.50;58.22;103083.03;4961648;28;124884;-69
2024/01/28 04:21:57;;;;;;;13.75;4.00;;;;;;;3.48;58.38;103085.66;4966763;28;109253;-70
2024/01/28 04:24:25;;;;;;;10.50;3.38;;;;;;;3.48;58.53;103084.75;4973730;28;109377;-69
2024/01/28 04:26:53;;;;;;;9.18;3.72;;;;;;;3.46;58.25;103070.75;4972451;28;124611;-70
2024/01/28 04:29:20;;;;;;;11.48;3.78;;;;;;;3.44;58.31;103072.44;4970412;28;124037;-69
2024/01/28 04:31:48;;;;;;;8.15;3.50;;;;;;;3.42;58.25;103068.91;4968175;28;109683;-69
2024/01/28 04:34:15;;;;;;;11.35;3.53;;;;;;;3.41;58.28;103069.75;4968663;28;109273;-69
2024/01/28 04:36:42;;;;;;;9.73;3.40;;;;;;;3.40;58.75;103065.38;4970658;28;124316;-69
2024/01/28 04:39:10;;;;;;;10.68;3.30;;;;;;;3.41;58.55;103061.91;4968184;28;124424;-69
2024/01/28 04:41:37;;;;;;;9.70;3.45;;;;;;;3.42;58.38;103064.56;4972778;28;110488;-69
2024/01/28 04:44:05;;;;;;;9.45;3.10;;;;;;;3.43;58.53;103070.69;4971573;28;109197;-69
2024/01/28 04:46:33;;;;;;;10.20;3.50;;;;;;;3.43;58.44;103070.69;4971344;28;123985;-69
2024/01/28 04:49:03;;;;;;;10.32;3.45;;;;;;;3.42;58.40;103069.78;4964149;28;122241;-69
2024/01/28 04:51:30;;;;;;;8.98;3.25;;;;;;;3.43;58.63;103065.47;4957779;28;110336;-69
2024/01/28 04:53:58;;;;;;;11.68;3.80;;;;;;;3.42;58.54;103058.44;4973059;28;110066;-69
2024/01/28 04:56:27;;;;;;;9.75;3.58;;;;;;;3.40;58.48;103060.16;4970853;28;124702;-70
2024/01/28 04:58:54;;;;;;;8.98;3.00;;;;;;;3.40;58.22;103065.38;4987822;28;124445;-69
2024/01/28 05:01:22;;;;;;;11.18;3.78;;;;;;;3.38;58.50;103051.38;4961921;28;109358;-69
2024/01/28 05:03:49;;;;;;;10.32;3.40;;;;;;;3.38;58.51;103046.16;4968282;28;109201;-69
2024/01/28 05:06:18;;;;;;;12.45;3.17;;;;;;;3.39;58.63;103047.88;4960949;28;124059;-69
2024/01/28 05:08:45;;;;;;;9.23;3.35;;;;;;;3.38;58.35;103046.16;4965783;28;124375;-69
2024/01/28 05:11:14;;;;;;;11.73;3.58;;;;;;;3.38;58.52;103038.28;4955403;28;109606;-69
2024/01/28 05:13:41;;;;;;;7.60;3.20;;;;;;;3.37;58.38;103039.13;4966834;28;109969;-69
2024/01/28 05:16:08;;;;;;;8.50;3.35;;;;;;;3.34;58.43;103033.84;4959800;28;124047;-70
2024/01/28 05:18:36;;;;;;;9.65;2.90;;;;;;;3.33;58.44;103032.06;4959977;28;124170;-69
2024/01/28 05:21:03;;;;;;;7.63;3.38;;;;;;;3.31;58.57;103025.06;4972767;28;109345;-70
2024/01/28 05:23:30;;;;;;;7.78;3.20;;;;;;;3.31;58.64;103018.94;4971108;28;108906;-70
2024/01/28 05:25:59;;;;;;;10.70;3.88;;;;;;;3.31;58.55;103013.69;4961869;28;124370;-69
2024/01/28 05:28:26;;;;;;;7.28;3.50;;;;;;;3.31;58.68;103009.34;4963449;28;123434;-69
2024/01/28 05:30:53;;;;;;;14.48;3.85;;;;;;;3.31;58.69;103008.44;4969239;28;109263;-69
2024/01/28 05:33:20;;;;;;;8.80;3.50;;;;;;;3.33;58.83;103005.88;4971974;28;110321;-69
2024/01/28 05:35:48;;;;;;;11.90;3.20;;;;;;;3.31;58.56;103009.34;4969732;28;124572;-68
2024/01/28 05:38:15;;;;;;;11.25;3.67;;;;;;;3.31;58.63;103009.34;4970002;28;123952;-69
2024/01/28 05:40:42;;;;;;;9.30;3.60;;;;;;;3.32;58.77;103012.84;4972978;28;110346;-69
2024/01/28 05:43:09;;;;;;;9.05;3.30;;;;;;;3.31;58.58;103019.84;4965184;28;109724;-68
2024/01/28 05:45:36;;;;;;;7.80;3.15;;;;;;;3.31;58.58;103011.97;4970108;28;124057;-68
2024/01/28 05:48:04;;;;;;;13.52;3.83;;;;;;;3.31;58.60;103009.34;4975330;28;124880;-68
2024/01/28 05:50:32;;;;;;;8.68;3.05;;;;;;;3.31;58.47;103013.69;4961579;28;109767;-69
2024/01/28 05:52:59;;;;;;;9.00;2.95;;;;;;;3.30;58.57;102999.72;4975220;28;108174;-69
2024/01/28 05:55:26;;;;;;;8.43;3.28;;;;;;;3.30;58.66;102991.88;4974264;28;124887;-69
2024/01/28 05:57:53;;;;;;;11.55;3.75;;;;;;;3.30;58.71;102989.25;4970420;28;124289;-69
2024/01/28 06:00:21;;;;;;;13.15;3.53;;;;;;;3.30;58.34;102983.13;4973154;28;111069;-69
2024/01/28 06:02:48;;;;;;;7.72;3.60;;;;;;;3.28;58.61;102977.84;4968579;28;108958;-69
2024/01/28 06:05:15;;;;;;;9.45;3.85;;;;;;;3.27;58.76;102976.09;4969784;28;124620;-69
2024/01/28 06:07:43;;;;;;;8.85;3.63;;;;;;;3.26;58.53;102963.84;4973673;28;123936;-69
2024/01/28 06:10:10;;;;;;;13.15;3.70;;;;;;;3.25;58.67;102972.56;4973351;28;109578;-69
2024/01/28 06:12:37;;;;;;;10.95;3.60;;;;;;;3.25;58.55;102977.78;4975497;28;108880;-69
2024/01/28 06:15:08;;;;;;;9.85;3.28;;;;;;;3.26;58.87;102979.56;4974252;28;124062;-68
2024/01/28 06:17:38;;;;;;;11.10;3.55;;;;;;;3.27;58.79;102978.69;4965546;28;125255;-68
2024/01/28 06:20:07;;;;;;;9.60;3.42;;;;;;;3.27;58.57;102970.84;4973516;28;110222;-69
2024/01/28 06:22:36;;;;;;;6.75;3.03;;;;;;;3.27;58.71;102965.59;4978645;28;107975;-69
2024/01/28 06:25:05;;;;;;;9.43;3.10;;;;;;;3.27;58.64;102960.38;4972557;28;122839;-69
2024/01/28 06:27:33;;;;;;;9.38;3.85;;;;;;;3.27;58.62;102969.97;4974253;28;122648;-69
2024/01/28 06:30:00;;;;;;;8.27;3.28;;;;;;;3.26;58.64;102963.84;4975052;28;110066;-69
2024/01/28 06:32:27;;;;;;;9.63;3.42;;;;;;;3.26;58.62;102963.84;4969433;28;110131;-69
2024/01/28 06:34:55;;;;;;;7.53;3.10;;;;;;;3.25;58.75;102951.59;4967957;28;124165;-69
2024/01/28 06:37:22;;;;;;;7.68;3.13;;;;;;;3.25;58.60;102946.38;4958184;28;124280;-69
2024/01/28 06:39:51;;;;;;;6.82;3.50;;;;;;;3.24;58.74;102939.38;4974289;28;109513;-69
2024/01/28 06:42:19;;;;;;;5.38;3.08;;;;;;;3.23;58.64;102934.97;4961836;28;109659;-69
2024/01/28 06:44:47;;;;;;;7.38;3.10;;;;;;;3.20;58.53;102931.41;4972084;28;124279;-68
2024/01/28 06:47:14;;;;;;;11.98;3.30;;;;;;;3.19;58.65;102925.31;4968303;28;125316;-68
2024/01/28 06:49:41;;;;;;;6.47;3.30;;;;;;;3.18;58.62;102928.75;4955144;28;109657;-68
2024/01/28 06:52:09;;;;;;;8.15;3.13;;;;;;;3.17;58.69;102932.25;4971839;28;108854;-68
2024/01/28 06:54:38;;;;;;;9.25;3.75;;;;;;;3.14;58.80;102926.94;4962575;28;123476;-68
2024/01/28 06:57:08;;;;;;;9.52;3.33;;;;;;;3.13;58.40;102919.97;4973268;28;123940;-68
2024/01/28 06:59:35;;;;;;;10.18;3.40;;;;;;;3.12;58.79;102919.06;4964058;28;109757;-68
2024/01/28 07:02:03;;;;;;;7.40;3.13;;;;;;;3.11;58.71;102932.13;4972437;28;109244;-68
2024/01/28 07:04:30;;;;;;;6.43;3.00;;;;;;;3.11;58.73;102932.13;4971370;28;124464;-68
2024/01/28 07:06:57;;;;;;;9.77;3.75;;;;;;;3.11;58.51;102927.78;4965818;28;123643;-68
2024/01/28 07:09:27;;;;;;;9.95;3.25;;;;;;;3.13;58.67;102927.81;4963230;28;108374;-68
2024/01/28 07:11:54;;;;;;;8.73;3.42;;;;;;;3.14;58.75;102929.56;4968534;28;109999;-69
2024/01/28 07:14:24;;;;;;;6.22;3.13;;;;;;;3.14;58.62;102932.19;4956836;28;124014;-69
2024/01/28 07:17:01;;;;;;;6.35;3.05;;;;;;;3.14;58.59;102932.19;4972110;22;123893;-69
2024/01/28 07:19:28;;;;;;;7.38;3.58;;;;;;;3.14;58.56;102921.72;4978195;22;110501;-69
2024/01/28 07:21:55;;;;;;;9.05;3.70;;;;;;;3.14;58.54;102934.81;4987804;28;110104;-69
2024/01/28 07:24:23;;;;;;;8.38;4.03;;;;;;;3.13;58.65;102927.81;4988801;28;124312;-69
2024/01/28 07:26:50;;;;;;;11.13;3.80;;;;;;;3.12;58.83;102933.88;4992665;28;125369;-69
2024/01/28 07:29:18;;;;;;;7.43;3.63;;;;;;;3.11;58.71;102932.13;4990090;28;109403;-70
2024/01/28 07:31:45;;;;;;;7.72;4.05;;;;;;;3.13;58.63;102935.66;4991443;28;108817;-69
2024/01/28 07:34:15;;;;;;;11.68;3.78;;;;;;;3.14;58.85;102931.31;4986946;28;124229;-69
2024/01/28 07:36:42;;;;;;;11.45;3.80;;;;;;;3.14;58.61;102932.19;4990529;28;124726;-69
2024/01/28 07:39:09;;;;;;;8.32;3.75;;;;;;;3.15;58.86;102923.50;4985685;28;109505;-69
2024/01/28 07:41:36;;;;;;;7.60;3.58;;;;;;;3.16;59.11;102924.38;4987339;28;109024;-69
2024/01/28 07:44:04;;;;;;;10.43;4.00;;;;;;;3.17;58.98;102921.78;4979645;28;124201;-68
2024/01/28 07:46:31;;;;;;;10.20;3.78;;;;;;;3.17;58.79;102916.53;4975835;28;123836;-69
2024/01/28 07:49:00;;;;;;;11.75;4.10;;;;;;;3.19;58.86;102930.53;4977000;28;110345;-68
2024/01/28 07:51:28;;;;;;;10.25;3.72;;;;;;;3.21;59.10;102928.84;4976983;28;110501;-69
2024/01/28 07:53:55;;;;;;;9.77;3.47;;;;;;;3.22;58.97;102914.91;4979143;28;125311;-68
2024/01/28 07:56:22;;;;;;;8.95;3.17;;;;;;;3.24;59.16;102921.06;4981140;28;124247;-69
2024/01/28 07:58:49;;;;;;;14.50;3.72;;;;;;;3.27;58.98;102928.94;4990870;28;108234;-69
2024/01/28 08:01:17;;;;;;;9.95;3.65;;;;;;;3.30;59.10;102929.00;4983414;28;109042;-68
2024/01/28 08:03:45;;;;;;;10.15;3.80;;;;;;;3.32;59.05;102921.19;4992697;28;123898;-68
2024/01/28 08:06:12;;;;;;;11.85;3.67;;;;;;;3.36;59.22;102922.13;5007738;27;122807;-69
2024/01/28 08:08:40;;;;;;;9.18;3.85;;;;;;;3.36;59.30;102916.91;4985724;28;110036;-69
2024/01/28 08:11:07;;;;;;;8.73;3.72;;;;;;;3.40;59.28;102923.94;4984515;28;109750;-69
2024/01/28 08:13:34;;;;;;;13.32;4.65;;;;;;;3.41;59.06;102917.84;4977948;28;124143;-68
2024/01/28 08:16:03;;;;;;;6.72;3.85;;;;;;;3.43;59.10;102919.66;4987271;28;123783;-69
2024/01/28 08:18:31;;;;;;;7.45;3.45;;;;;;;3.46;59.08;102908.34;4990912;28;109453;-69
2024/01/28 08:20:58;;;;;;;8.60;3.80;;;;;;;3.48;59.07;102914.47;4981955;28;109123;-69
2024/01/28 08:23:26;;;;;;;7.72;3.60;;;;;;;3.51;59.06;102917.16;4974558;28;124947;-69
2024/01/28 08:25:53;;;;;;;8.13;3.15;;;;;;;3.55;59.30;102918.97;4975001;28;124316;-68
2024/01/28 08:28:21;;;;;;;8.05;3.33;;;;;;;3.59;59.11;102920.78;4975384;28;109756;-69
2024/01/28 08:30:50;;;;;;;7.32;3.42;;;;;;;3.63;59.27;102922.59;4973766;28;108717;-69
2024/01/28 08:33:17;;;;;;;9.60;3.80;;;;;;;3.67;59.28;102929.69;4987028;28;124323;-69
2024/01/28 08:35:45;;;;;;;10.10;3.85;;;;;;;3.73;59.07;102930.63;4985909;28;124062;-69
2024/01/28 08:38:12;;;;;;;13.95;3.70;;;;;;;3.75;59.04;102927.19;4982542;28;109395;-69
2024/01/28 08:40:39;;;;;;;7.25;3.40;;;;;;;3.79;59.16;102929.00;4983120;28;109728;-68
2024/01/28 08:43:08;;;;;;;9.60;3.47;;;;;;;3.83;59.19;102930.81;4985420;28;124074;-68
2024/01/28 08:45:38;;;;;;;8.65;3.45;;;;;;;3.86;59.16;102914.25;4979271;28;123500;-69
2024/01/28 08:48:05;;;;;;;9.13;3.47;;;;;;;3.89;59.13;102911.69;4979981;28;108370;-68
2024/01/28 08:50:33;;;;;;;8.18;3.42;;;;;;;3.92;58.79;102911.75;4985771;28;109369;-69
2024/01/28 08:53:00;;;;;;;9.30;3.47;;;;;;;3.93;59.18;102903.00;4989171;28;125357;-69
2024/01/28 08:55:27;;;;;;;5.43;3.10;;;;;;;3.97;59.23;102906.56;4990829;28;123611;-69
2024/01/28 08:57:55;;;;;;;10.77;3.40;;;;;;;4.00;59.12;102902.25;4980573;28;110290;-69
2024/01/28 09:00:22;;;;;;;14.55;3.40;;;;;;;4.04;59.26;102904.06;4978506;28;109883;-69
2024/01/28 09:02:49;;;;;;;7.40;3.58;;;;;;;4.08;59.30;102900.63;4984987;28;123835;-69
2024/01/28 09:05:17;;;;;;;7.68;3.63;;;;;;;4.14;59.65;102904.19;4991714;28;123657;-69
2024/01/28 09:07:45;;;;;;;16.70;3.60;;;;;;;4.20;59.47;102894.69;4992887;28;109298;-69
2024/01/28 09:10:13;;;;;;;9.95;3.38;;;;;;;4.27;59.77;102900.91;4989035;28;109094;-69
2024/01/28 09:12:40;;;;;;;10.00;3.22;;;;;;;4.34;59.54;102896.63;4990825;28;124365;-69
2024/01/28 09:15:08;;;;;;;7.07;3.40;;;;;;;4.39;59.84;102885.34;4975350;28;123585;-69
2024/01/28 09:17:35;;;;;;;10.35;3.63;;;;;;;4.46;59.75;102884.56;4991538;28;109069;-69
2024/01/28 09:20:03;;;;;;;13.10;3.50;;;;;;;4.55;59.72;102869.78;4991823;28;109357;-70
2024/01/28 09:22:33;;;;;;;10.85;3.53;;;;;;;4.60;59.66;102874.25;4986399;28;124268;-69
2024/01/28 09:25:01;;;;;;;10.65;3.22;;;;;;;4.68;59.75;102876.97;4981895;28;124732;-70
2024/01/28 09:27:29;;;;;;;10.30;3.45;;;;;;;4.74;59.72;102866.53;4995066;28;110497;-70
2024/01/28 09:29:56;;;;;;;8.25;3.15;;;;;;;4.82;59.93;102874.50;4988689;28;109040;-70
2024/01/28 09:32:24;;;;;;;8.38;3.53;;;;;;;4.91;60.04;102873.72;4986073;28;125002;-70
2024/01/28 09:34:52;;;;;;;10.00;3.45;;;;;;;4.97;59.65;102868.53;4992317;28;124113;-70
2024/01/28 09:37:20;;;;;;;10.60;3.50;;;;;;;5.05;59.58;102866.88;4992405;28;109804;-69
2024/01/28 09:39:47;;;;;;;11.43;3.70;;;;;;;5.12;59.87;102863.44;4990382;28;108596;-70
2024/01/28 09:42:30;;;;;;;9.90;3.83;;;;;;;5.20;59.64;102867.03;4989860;28;124561;-70
2024/01/28 09:44:58;;;;;;;9.45;3.05;;;;;;;5.29;59.74;102871.47;4982643;28;124278;-70
2024/01/28 09:47:27;;;;;;;7.13;3.28;;;;;;;5.36;59.89;102875.94;4996916;28;110504;-70
2024/01/28 09:49:55;;;;;;;9.85;3.75;;;;;;;5.44;59.86;102881.25;4991061;28;110205;-70
2024/01/28 09:52:23;;;;;;;7.90;3.15;;;;;;;5.53;59.68;102875.22;4988027;28;124364;-70
2024/01/28 09:54:50;;;;;;;7.28;2.80;;;;;;;5.61;59.67;102873.53;4989876;28;124377;-70
2024/01/28 09:57:18;;;;;;;6.72;3.10;;;;;;;5.69;59.84;102871.88;4982383;28;109356;-70
2024/01/28 09:59:46;;;;;;;5.57;3.25;;;;;;;5.77;59.78;102874.53;4991760;28;108761;-70
2024/01/28 10:02:14;;;;;;;6.97;3.13;;;;;;;5.85;59.60;102872.84;4990687;28;123130;-70
2024/01/28 10:04:42;;;;;;;9.95;2.63;;;;;;;5.92;59.65;102864.13;4990283;28;124431;-70
2024/01/28 10:07:11;;;;;;;6.35;3.17;;;;;;;6.03;59.45;102867.75;4988840;28;109636;-70
2024/01/28 10:09:38;;;;;;;11.15;3.33;;;;;;;6.12;59.37;102860.78;4987971;28;109174;-71
2024/01/28 10:12:08;;;;;;;8.75;3.50;;;;;;;6.20;59.61;102862.59;4983921;28;123915;-71
2024/01/28 10:14:36;;;;;;;8.70;3.28;;;;;;;6.29;59.37;102851.25;4987761;28;123635;-70
2024/01/28 10:17:03;;;;;;;6.00;2.97;;;;;;;6.39;59.19;102862.69;4989298;28;108481;-70
2024/01/28 10:19:30;;;;;;;5.75;3.20;;;;;;;6.48;59.24;102853.94;4986029;28;109197;-71
2024/01/28 10:22:00;;;;;;;9.13;3.00;;;;;;;6.58;59.41;102848.75;4987516;28;123652;-71
2024/01/28 10:24:28;;;;;;;8.73;3.20;;;;;;;6.68;59.11;102852.28;4978466;28;124310;-70
2024/01/28 10:26:57;;;;;;;5.75;2.78;;;;;;;6.77;59.34;102857.59;4996176;28;109451;-70
2024/01/28 10:29:27;;;;;;;7.18;2.88;;;;;;;6.87;59.09;102847.06;4988849;28;109047;-71
2024/01/28 10:32:00;;;;;;;7.78;2.88;;;;;;;6.97;59.07;102848.88;5002061;27;122940;-71
2024/01/28 10:34:28;;;;;;;12.38;2.97;;;;;;;7.06;59.05;102843.59;4993625;28;124047;-70
2024/01/28 10:36:59;;;;;;;5.30;2.78;;;;;;;7.16;59.00;102840.13;4988551;28;109936;-70
2024/01/28 10:39:34;;;;;;;6.28;2.60;;;;;;;7.26;59.06;102829.59;4981991;28;109807;-71
2024/01/28 10:42:04;;;;;;;4.95;3.03;;;;;;;7.37;58.85;102827.84;4990020;28;123876;-71
2024/01/28 10:44:37;;;;;;;8.30;2.55;;;;;;;7.45;58.81;102825.19;4986140;28;124547;-71
2024/01/28 10:47:08;;;;;;;7.18;2.83;;;;;;;7.53;58.64;102829.56;5005073;28;108645;-70
2024/01/28 10:49:37;;;;;;;8.07;3.53;;;;;;;7.63;58.76;102813.75;4994056;28;108895;-70
2024/01/28 10:52:08;;;;;;;7.00;2.70;;;;;;;7.72;58.99;102816.38;4992519;28;124013;-69
2024/01/28 10:54:39;;;;;;;8.45;2.85;;;;;;;7.83;58.65;102817.25;4992719;28;124565;-70
2024/01/28 10:57:08;;;;;;;4.53;2.65;;;;;;;7.91;58.51;102810.22;4974233;28;109587;-70
2024/01/28 10:59:39;;;;;;;9.93;2.80;;;;;;;8.01;58.61;102802.28;4987394;28;108796;-70
2024/01/28 11:02:08;;;;;;;8.18;2.70;;;;;;;8.09;58.39;102797.84;4993336;28;124016;-70
2024/01/28 11:04:35;;;;;;;6.10;2.42;;;;;;;8.20;58.33;102801.31;4987624;28;123865;-68
2024/01/28 11:07:05;;;;;;;5.60;2.53;;;;;;;8.27;58.42;102797.78;4986998;28;109283;-69
2024/01/28 11:09:33;;;;;;;5.75;2.65;;;;;;;8.37;58.27;102786.28;5004503;28;108635;-69
2024/01/28 11:12:00;;;;;;;6.07;2.72;;;;;;;8.47;58.03;102779.22;4986571;28;123094;-68
2024/01/28 11:14:27;;;;;;;7.18;2.75;;;;;;;8.56;58.44;102773.03;4981889;28;124034;-68
2024/01/28 11:16:56;;;;;;;5.30;2.35;;;;;;;8.64;58.21;102776.50;4984185;28;108132;-69
2024/01/28 11:19:27;;;;;;;6.53;2.42;;;;;;;8.72;58.14;102769.41;4977287;28;108845;-68
2024/01/28 11:21:58;;;;;;;5.93;2.40;;;;;;;8.84;58.02;102772.88;4988631;28;123927;-69
2024/01/28 11:24:25;;;;;;;6.22;2.55;;;;;;;8.92;57.96;102766.63;4992795;28;124219;-69